createdAt,value
2019-01-30T00:00:20.169Z,12.37
2019-01-30T00:01:21.051Z,11.75
2019-01-30T00:02:21.881Z,12.00
2019-01-30T00:03:22.711Z,11.55
2019-01-30T00:04:23.590Z,11.22
2019-01-30T00:05:24.771Z,12.43
2019-01-30T00:06:25.665Z,11.65
2019-01-30T00:07:26.502Z,12.13
2019-01-30T00:08:27.354Z,11.38
2019-01-30T00:09:28.175Z,11.85
2019-01-30T00:10:29.025Z,10.75
2019-01-30T00:11:29.915Z,11.60
2019-01-30T00:12:30.750Z,11.68
2019-01-30T00:13:31.582Z,12.25
2019-01-30T00:14:32.422Z,11.70
2019-01-30T00:15:33.318Z,11.70
2019-01-30T00:16:34.158Z,11.70
2019-01-30T00:17:35.061Z,10.88
2019-01-30T00:18:35.904Z,10.90
2019-01-30T00:19:36.965Z,11.63
2019-01-30T00:20:37.824Z,11.03
2019-01-30T00:21:38.650Z,10.60
2019-01-30T00:22:39.548Z,11.18
2019-01-30T00:23:40.362Z,10.93
2019-01-30T00:24:41.215Z,11.12
2019-01-30T00:25:42.126Z,10.80
2019-01-30T00:26:43.108Z,10.75
2019-01-30T00:27:44.054Z,10.05
2019-01-30T00:28:44.924Z,10.60
2019-01-30T00:29:45.761Z,10.03
2019-01-30T00:30:46.602Z,10.08
2019-01-30T00:31:47.441Z,10.20
2019-01-30T00:32:48.284Z,10.18
2019-01-30T00:33:49.196Z,9.40
2019-01-30T00:34:50.039Z,9.55
2019-01-30T00:35:50.906Z,8.83
2019-01-30T00:36:51.753Z,9.53
2019-01-30T00:37:52.674Z,8.83
2019-01-30T00:38:53.553Z,9.90
2019-01-30T00:39:54.376Z,9.35
2019-01-30T00:40:55.268Z,9.20
2019-01-30T00:41:56.119Z,8.98
2019-01-30T00:42:56.951Z,9.20
2019-01-30T00:43:57.820Z,9.00
2019-01-30T00:44:58.672Z,8.48
2019-01-30T00:45:59.506Z,9.05
2019-01-30T00:47:00.358Z,8.88
2019-01-30T00:48:01.582Z,8.95
2019-01-30T00:49:02.512Z,8.55
2019-01-30T00:50:03.371Z,9.53
2019-01-30T00:51:04.232Z,9.13
2019-01-30T00:52:05.070Z,9.18
2019-01-30T00:53:05.929Z,8.88
2019-01-30T00:54:06.755Z,8.75
2019-01-30T00:55:07.698Z,9.18
2019-01-30T00:56:08.535Z,9.15
2019-01-30T00:57:09.380Z,9.45
2019-01-30T00:58:10.234Z,8.95
2019-01-30T00:59:11.078Z,8.78
2019-01-30T01:00:14.570Z,8.25
2019-01-30T01:01:14.682Z,8.23
2019-01-30T01:02:15.727Z,8.60
2019-01-30T01:03:16.577Z,9.00
2019-01-30T01:04:17.462Z,8.48
2019-01-30T01:05:19.499Z,9.10
2019-01-30T01:06:20.594Z,9.38
2019-01-30T01:07:21.756Z,9.00
2019-01-30T01:08:24.611Z,9.40
2019-01-30T01:09:26.824Z,8.73
2019-01-30T01:10:28.316Z,8.80
2019-01-30T01:11:29.331Z,8.98
2019-01-30T01:12:32.215Z,9.15
2019-01-30T01:13:33.792Z,9.35
2019-01-30T01:14:34.848Z,8.68
2019-01-30T01:15:36.527Z,8.63
2019-01-30T01:16:37.542Z,10.05
2019-01-30T01:17:38.592Z,8.73
2019-01-30T01:18:39.655Z,8.53
2019-01-30T01:19:40.869Z,9.20
2019-01-30T01:20:41.931Z,8.98
2019-01-30T01:21:42.889Z,8.65
2019-01-30T01:22:43.747Z,9.10
2019-01-30T01:23:44.664Z,9.50
2019-01-30T01:24:45.855Z,10.00
2019-01-30T01:25:46.924Z,8.70
2019-01-30T01:26:47.812Z,8.45
2019-01-30T01:27:48.845Z,9.33
2019-01-30T01:28:51.154Z,9.50
2019-01-30T01:29:52.561Z,9.30
2019-01-30T01:30:53.582Z,9.25
2019-01-30T01:31:54.533Z,9.40
2019-01-30T01:32:55.392Z,9.00
2019-01-30T01:33:56.253Z,9.58
2019-01-30T01:34:57.087Z,9.15
2019-01-30T01:35:57.981Z,8.75
2019-01-30T01:36:58.921Z,9.18
2019-01-30T01:37:59.766Z,8.33
2019-01-30T01:39:00.599Z,9.48
2019-01-30T01:40:01.601Z,8.53
2019-01-30T01:41:02.504Z,9.65
2019-01-30T01:42:03.350Z,9.55
2019-01-30T01:43:04.232Z,9.53
2019-01-30T01:44:05.070Z,8.85
2019-01-30T01:45:05.951Z,8.75
2019-01-30T01:46:06.786Z,9.35
2019-01-30T01:47:07.633Z,8.60
2019-01-30T01:48:08.482Z,9.53
2019-01-30T01:49:09.326Z,9.58
2019-01-30T01:50:10.203Z,8.53
2019-01-30T01:51:11.070Z,8.88
2019-01-30T01:52:11.904Z,9.38
2019-01-30T01:53:12.728Z,9.43
2019-01-30T01:54:13.545Z,9.08
2019-01-30T01:55:14.443Z,8.83
2019-01-30T01:56:15.276Z,8.88
2019-01-30T01:57:16.137Z,8.35
2019-01-30T01:58:17.149Z,9.05
2019-01-30T01:59:17.963Z,8.63
2019-01-30T02:00:18.811Z,8.33
2019-01-30T02:01:19.674Z,8.33
2019-01-30T02:02:20.514Z,8.78
2019-01-30T02:03:21.350Z,8.35
2019-01-30T02:04:22.198Z,9.23
2019-01-30T02:05:23.246Z,9.33
2019-01-30T02:06:24.334Z,9.25
2019-01-30T02:07:25.156Z,9.60
2019-01-30T02:08:25.996Z,9.90
2019-01-30T02:09:26.835Z,9.55
2019-01-30T02:10:27.682Z,9.95
2019-01-30T02:11:28.828Z,9.73
2019-01-30T02:12:29.653Z,9.48
2019-01-30T02:13:30.508Z,10.03
2019-01-30T02:14:31.401Z,10.18
2019-01-30T02:15:32.367Z,9.83
2019-01-30T02:16:33.268Z,9.70
2019-01-30T02:17:34.246Z,9.43
2019-01-30T02:18:35.074Z,9.75
2019-01-30T02:19:35.936Z,10.88
2019-01-30T02:20:36.766Z,9.35
2019-01-30T02:21:37.602Z,10.50
2019-01-30T02:22:38.433Z,10.90
2019-01-30T02:23:39.270Z,10.60
2019-01-30T02:24:40.128Z,10.48
2019-01-30T02:25:41.063Z,10.60
2019-01-30T02:26:41.893Z,10.38
2019-01-30T02:27:42.732Z,10.20
2019-01-30T02:28:43.563Z,10.72
2019-01-30T02:29:44.439Z,10.68
2019-01-30T02:30:47.682Z,10.45
2019-01-30T02:31:48.019Z,11.15
2019-01-30T02:32:48.865Z,10.72
2019-01-30T02:33:49.706Z,11.45
2019-01-30T02:34:50.583Z,12.33
2019-01-30T02:35:51.467Z,11.68
2019-01-30T02:36:52.398Z,11.40
2019-01-30T02:37:53.310Z,12.05
2019-01-30T02:38:54.160Z,11.33
2019-01-30T02:39:55.085Z,11.80
2019-01-30T02:40:55.959Z,11.50
2019-01-30T02:41:56.789Z,12.05
2019-01-30T02:42:57.647Z,11.95
2019-01-30T02:43:58.518Z,12.20
2019-01-30T02:44:59.375Z,11.30
2019-01-30T02:46:00.234Z,11.43
2019-01-30T02:47:01.065Z,11.78
2019-01-30T02:48:01.993Z,11.93
2019-01-30T02:49:03.053Z,11.83
2019-01-30T02:50:03.936Z,11.93
2019-01-30T02:51:04.803Z,11.57
2019-01-30T02:52:05.643Z,11.97
2019-01-30T02:53:06.487Z,11.88
2019-01-30T02:54:07.306Z,11.55
2019-01-30T02:55:08.238Z,11.00
2019-01-30T02:56:09.181Z,12.10
2019-01-30T02:57:10.036Z,12.25
2019-01-30T02:58:11.108Z,11.57
2019-01-30T02:59:12.076Z,12.03
2019-01-30T03:00:12.998Z,11.83
2019-01-30T03:01:13.847Z,11.35
2019-01-30T03:02:14.693Z,11.35
2019-01-30T03:03:15.558Z,12.60
2019-01-30T03:04:16.449Z,11.78
2019-01-30T03:05:17.310Z,11.65
2019-01-30T03:06:18.160Z,12.07
2019-01-30T03:07:18.994Z,10.23
2019-01-30T03:08:19.871Z,11.95
2019-01-30T03:09:20.699Z,11.48
2019-01-30T03:10:21.557Z,11.55
2019-01-30T03:11:22.464Z,11.68
2019-01-30T03:12:23.399Z,12.30
2019-01-30T03:13:24.273Z,11.85
2019-01-30T03:14:25.105Z,11.45
2019-01-30T03:15:25.950Z,10.95
2019-01-30T03:16:26.798Z,11.25
2019-01-30T03:17:27.725Z,11.12
2019-01-30T03:18:28.595Z,11.20
2019-01-30T03:19:29.425Z,10.48
2019-01-30T03:20:30.349Z,12.00
2019-01-30T03:21:31.313Z,11.05
2019-01-30T03:22:32.187Z,11.35
2019-01-30T03:23:33.088Z,10.75
2019-01-30T03:24:33.949Z,10.58
2019-01-30T03:25:35.074Z,11.40
2019-01-30T03:26:35.924Z,11.18
2019-01-30T03:27:36.747Z,11.35
2019-01-30T03:28:37.596Z,10.78
2019-01-30T03:29:38.468Z,10.88
2019-01-30T03:30:39.314Z,11.00
2019-01-30T03:31:40.145Z,11.15
2019-01-30T03:32:40.985Z,10.53
2019-01-30T03:33:41.943Z,10.78
2019-01-30T03:34:42.789Z,11.33
2019-01-30T03:35:43.658Z,11.10
2019-01-30T03:36:44.476Z,11.15
2019-01-30T03:37:45.310Z,11.38
2019-01-30T03:38:46.151Z,11.05
2019-01-30T03:39:47.005Z,11.35
2019-01-30T03:40:47.985Z,10.18
2019-01-30T03:41:48.810Z,9.85
2019-01-30T03:42:49.658Z,10.82
2019-01-30T03:43:50.515Z,10.90
2019-01-30T03:44:51.394Z,10.08
2019-01-30T03:45:52.244Z,10.80
2019-01-30T03:46:53.165Z,10.48
2019-01-30T03:47:54.195Z,9.55
2019-01-30T03:48:55.182Z,10.70
2019-01-30T03:49:56.013Z,10.45
2019-01-30T03:50:56.871Z,9.95
2019-01-30T03:51:57.712Z,9.85
2019-01-30T03:52:58.567Z,9.33
2019-01-30T03:53:59.738Z,9.60
2019-01-30T03:55:00.588Z,9.58
2019-01-30T03:56:01.462Z,9.10
2019-01-30T03:57:02.298Z,9.45
2019-01-30T03:58:03.145Z,9.65
2019-01-30T03:59:03.985Z,9.50
2019-01-30T04:00:04.850Z,10.58
2019-01-30T04:01:05.925Z,9.60
2019-01-30T04:02:06.757Z,9.55
2019-01-30T04:03:07.577Z,8.80
2019-01-30T04:04:08.453Z,8.55
2019-01-30T04:05:09.297Z,8.45
2019-01-30T04:06:10.130Z,9.45
2019-01-30T04:07:10.961Z,9.43
2019-01-30T04:08:11.856Z,9.40
2019-01-30T04:09:12.724Z,8.63
2019-01-30T04:10:13.593Z,9.15
2019-01-30T04:11:14.470Z,9.43
2019-01-30T04:12:15.303Z,9.03
2019-01-30T04:13:16.233Z,9.20
2019-01-30T04:14:17.195Z,8.53
2019-01-30T04:15:18.025Z,9.43
2019-01-30T04:16:18.895Z,8.25
2019-01-30T04:17:19.741Z,8.60
2019-01-30T04:18:20.593Z,9.03
2019-01-30T04:19:21.591Z,8.93
2019-01-30T04:20:22.420Z,8.98
2019-01-30T04:21:23.264Z,8.45
2019-01-30T04:22:24.098Z,8.48
2019-01-30T04:23:24.978Z,8.90
2019-01-30T04:24:25.810Z,8.20
2019-01-30T04:25:26.650Z,8.78
2019-01-30T04:26:27.510Z,9.03
2019-01-30T04:27:28.340Z,8.75
2019-01-30T04:28:29.213Z,8.45
2019-01-30T04:29:30.057Z,8.28
2019-01-30T04:30:30.905Z,8.10
2019-01-30T04:31:38.253Z,8.60
2019-01-30T04:32:34.526Z,8.13
2019-01-30T04:33:35.383Z,8.50
2019-01-30T04:34:36.348Z,7.87
2019-01-30T04:35:37.236Z,8.33
2019-01-30T04:36:38.227Z,7.80
2019-01-30T04:37:39.094Z,8.10
2019-01-30T04:38:39.940Z,8.20
2019-01-30T04:39:40.788Z,8.18
2019-01-30T04:40:41.761Z,8.35
2019-01-30T04:41:42.600Z,8.60
2019-01-30T04:42:43.442Z,7.90
2019-01-30T04:43:44.286Z,8.50
2019-01-30T04:44:45.142Z,8.20
2019-01-30T04:45:46.016Z,8.30
2019-01-30T04:46:46.840Z,8.23
2019-01-30T04:47:47.673Z,7.95
2019-01-30T04:48:48.665Z,8.98
2019-01-30T04:49:49.610Z,7.92
2019-01-30T04:50:50.485Z,8.65
2019-01-30T04:51:51.297Z,8.30
2019-01-30T04:52:52.125Z,8.03
2019-01-30T04:53:52.972Z,8.75
2019-01-30T04:54:53.866Z,8.45
2019-01-30T04:55:54.859Z,8.38
2019-01-30T04:56:55.695Z,7.67
2019-01-30T04:57:58.175Z,7.65
2019-01-30T04:58:59.297Z,7.92
2019-01-30T05:00:00.329Z,7.92
2019-01-30T05:01:01.273Z,7.72
2019-01-30T05:02:02.204Z,7.75
2019-01-30T05:03:03.096Z,8.00
2019-01-30T05:04:03.936Z,7.70
2019-01-30T05:05:04.788Z,7.72
2019-01-30T05:06:05.676Z,8.20
2019-01-30T05:07:06.631Z,7.40
2019-01-30T05:08:07.563Z,7.92
2019-01-30T05:09:08.462Z,7.35
2019-01-30T05:10:09.361Z,8.50
2019-01-30T05:11:10.230Z,8.20
2019-01-30T05:12:11.110Z,7.65
2019-01-30T05:13:12.010Z,8.30
2019-01-30T05:14:12.873Z,7.92
2019-01-30T05:15:13.701Z,7.35
2019-01-30T05:16:14.807Z,7.05
2019-01-30T05:17:15.673Z,7.78
2019-01-30T05:18:16.515Z,7.58
2019-01-30T05:19:17.369Z,7.80
2019-01-30T05:20:18.281Z,7.70
2019-01-30T05:21:19.122Z,7.78
2019-01-30T05:22:20.201Z,7.62
2019-01-30T05:23:21.027Z,7.58
2019-01-30T05:24:21.862Z,7.50
2019-01-30T05:25:22.756Z,8.13
2019-01-30T05:26:23.582Z,7.42
2019-01-30T05:27:24.446Z,7.83
2019-01-30T05:28:25.291Z,8.30
2019-01-30T05:29:26.187Z,6.45
2019-01-30T05:30:27.018Z,6.80
2019-01-30T05:31:27.881Z,7.70
2019-01-30T05:32:28.744Z,7.50
2019-01-30T05:33:29.577Z,7.30
2019-01-30T05:34:30.420Z,7.75
2019-01-30T05:35:31.246Z,6.92
2019-01-30T05:36:32.094Z,7.85
2019-01-30T05:37:33.191Z,7.65
2019-01-30T05:38:34.027Z,7.50
2019-01-30T05:39:34.860Z,7.58
2019-01-30T05:40:36.030Z,7.25
2019-01-30T05:41:36.895Z,7.53
2019-01-30T05:42:37.770Z,7.47
2019-01-30T05:43:38.623Z,6.92
2019-01-30T05:44:39.462Z,7.37
2019-01-30T05:45:40.314Z,7.50
2019-01-30T05:46:41.463Z,7.40
2019-01-30T05:47:42.332Z,7.35
2019-01-30T05:48:43.166Z,7.05
2019-01-30T05:49:44.007Z,7.15
2019-01-30T05:50:44.852Z,7.08
2019-01-30T05:51:45.737Z,6.85
2019-01-30T05:52:46.688Z,6.62
2019-01-30T05:53:47.708Z,6.97
2019-01-30T05:54:48.606Z,7.08
2019-01-30T05:55:49.449Z,6.90
2019-01-30T05:56:50.308Z,7.12
2019-01-30T05:57:51.245Z,7.25
2019-01-30T05:58:52.092Z,6.72
2019-01-30T05:59:53.226Z,7.35
2019-01-30T06:00:54.076Z,6.47
2019-01-30T06:01:54.958Z,6.70
2019-01-30T06:02:55.798Z,7.15
2019-01-30T06:03:56.615Z,7.00
2019-01-30T06:04:57.474Z,6.45
2019-01-30T06:05:58.323Z,7.50
2019-01-30T06:06:59.413Z,6.55
2019-01-30T06:08:00.257Z,7.15
2019-01-30T06:09:01.101Z,6.55
2019-01-30T06:10:02.073Z,6.78
2019-01-30T06:11:03.068Z,6.53
2019-01-30T06:12:03.890Z,7.00
2019-01-30T06:13:04.785Z,6.03
2019-01-30T06:14:05.611Z,6.50
2019-01-30T06:15:06.487Z,6.92
2019-01-30T06:16:07.469Z,6.47
2019-01-30T06:17:09.783Z,6.97
2019-01-30T06:18:10.886Z,6.05
2019-01-30T06:19:11.737Z,6.53
2019-01-30T06:20:12.574Z,6.60
2019-01-30T06:21:13.414Z,6.37
2019-01-30T06:22:14.290Z,6.10
2019-01-30T06:23:15.159Z,6.65
2019-01-30T06:24:15.982Z,6.37
2019-01-30T06:25:16.871Z,6.20
2019-01-30T06:26:17.712Z,5.97
2019-01-30T06:27:18.563Z,5.97
2019-01-30T06:28:19.530Z,6.17
2019-01-30T06:29:20.374Z,6.30
2019-01-30T06:30:21.227Z,6.30
2019-01-30T06:31:22.066Z,6.60
2019-01-30T06:32:22.946Z,5.62
2019-01-30T06:33:23.814Z,6.60
2019-01-30T06:34:24.704Z,6.22
2019-01-30T06:35:25.736Z,5.87
2019-01-30T06:36:26.586Z,6.37
2019-01-30T06:37:27.422Z,5.95
2019-01-30T06:38:28.260Z,6.17
2019-01-30T06:39:29.138Z,5.47
2019-01-30T06:40:29.972Z,6.05
2019-01-30T06:41:30.802Z,6.40
2019-01-30T06:42:31.634Z,5.47
2019-01-30T06:43:34.563Z,6.35
2019-01-30T06:44:35.377Z,5.78
2019-01-30T06:45:36.262Z,6.17
2019-01-30T06:46:37.097Z,5.85
2019-01-30T06:47:37.953Z,6.00
2019-01-30T06:48:38.786Z,5.53
2019-01-30T06:49:39.658Z,5.58
2019-01-30T06:50:41.680Z,6.03
2019-01-30T06:51:42.534Z,5.60
2019-01-30T06:52:43.357Z,6.03
2019-01-30T06:53:44.535Z,6.05
2019-01-30T06:54:45.404Z,6.00
2019-01-30T06:55:46.282Z,5.95
2019-01-30T06:56:47.126Z,5.95
2019-01-30T06:57:48.005Z,6.15
2019-01-30T06:58:48.857Z,5.80
2019-01-30T06:59:49.696Z,6.05
2019-01-30T07:00:52.715Z,5.53
2019-01-30T07:01:53.273Z,5.58
2019-01-30T07:02:54.196Z,5.42
2019-01-30T07:03:55.020Z,6.00
2019-01-30T07:04:55.866Z,6.20
2019-01-30T07:05:56.736Z,5.58
2019-01-30T07:06:57.558Z,5.20
2019-01-30T07:07:58.453Z,5.40
2019-01-30T07:08:59.306Z,5.58
2019-01-30T07:10:00.131Z,5.83
2019-01-30T07:11:10.468Z,5.50
2019-01-30T07:12:03.760Z,5.50
2019-01-30T07:13:04.819Z,5.40
2019-01-30T07:14:05.667Z,5.20
2019-01-30T07:15:06.545Z,5.33
2019-01-30T07:16:07.398Z,4.97
2019-01-30T07:17:08.250Z,5.67
2019-01-30T07:18:09.091Z,5.00
2019-01-30T07:19:09.921Z,5.47
2019-01-30T07:20:10.945Z,5.45
2019-01-30T07:21:11.777Z,7.67
2019-01-30T07:22:12.618Z,6.70
2019-01-30T07:23:13.477Z,7.87
2019-01-30T07:24:14.309Z,6.62
2019-01-30T07:25:15.207Z,7.00
2019-01-30T07:26:16.054Z,7.58
2019-01-30T07:27:16.898Z,10.63
2019-01-30T07:28:17.753Z,9.48
2019-01-30T07:29:18.586Z,7.60
2019-01-30T07:30:19.442Z,6.15
2019-01-30T07:31:20.313Z,6.22
2019-01-30T07:32:21.262Z,5.33
2019-01-30T07:33:22.083Z,5.33
2019-01-30T07:34:22.940Z,5.70
2019-01-30T07:35:23.834Z,5.60
2019-01-30T07:36:24.681Z,5.30
2019-01-30T07:37:25.533Z,5.78
2019-01-30T07:38:26.365Z,5.40
2019-01-30T07:39:27.203Z,5.47
2019-01-30T07:40:28.074Z,5.15
2019-01-30T07:41:28.969Z,5.80
2019-01-30T07:42:30.164Z,5.90
2019-01-30T07:43:30.998Z,6.03
2019-01-30T07:44:31.831Z,6.67
2019-01-30T07:45:32.687Z,6.25
2019-01-30T07:46:33.542Z,6.40
2019-01-30T07:47:34.416Z,6.40
2019-01-30T07:48:35.250Z,6.10
2019-01-30T07:49:36.098Z,5.97
2019-01-30T07:50:36.982Z,6.12
2019-01-30T07:51:37.852Z,6.25
2019-01-30T07:52:38.707Z,5.80
2019-01-30T07:53:39.550Z,6.40
2019-01-30T07:54:40.465Z,6.80
2019-01-30T07:55:41.421Z,6.10
2019-01-30T07:56:42.282Z,6.47
2019-01-30T07:57:43.255Z,6.28
2019-01-30T07:58:44.101Z,7.75
2019-01-30T07:59:44.985Z,6.55
2019-01-30T08:00:45.823Z,5.97
2019-01-30T08:01:46.676Z,5.65
2019-01-30T08:02:53.528Z,6.03
2019-01-30T08:03:50.592Z,6.05
2019-01-30T08:04:51.513Z,5.70
2019-01-30T08:05:52.358Z,6.33
2019-01-30T08:06:53.209Z,6.95
2019-01-30T08:07:54.094Z,6.22
2019-01-30T08:08:54.955Z,6.78
2019-01-30T08:09:55.836Z,6.15
2019-01-30T08:10:56.672Z,6.10
2019-01-30T08:11:57.520Z,6.28
2019-01-30T08:12:58.410Z,6.70
2019-01-30T08:14:01.788Z,6.90
2019-01-30T08:15:02.164Z,6.87
2019-01-30T08:16:03.581Z,7.08
2019-01-30T08:17:04.545Z,6.75
2019-01-30T08:18:05.481Z,6.58
2019-01-30T08:19:06.415Z,6.62
2019-01-30T08:20:07.276Z,7.03
2019-01-30T08:21:08.287Z,6.62
2019-01-30T08:22:09.106Z,6.87
2019-01-30T08:23:10.383Z,6.42
2019-01-30T08:24:11.817Z,6.42
2019-01-30T08:25:13.374Z,7.08
2019-01-30T08:26:14.337Z,6.83
2019-01-30T08:27:15.177Z,7.35
2019-01-30T08:28:16.726Z,6.70
2019-01-30T08:29:17.924Z,7.33
2019-01-30T08:30:22.506Z,6.83
2019-01-30T08:31:21.814Z,6.87
2019-01-30T08:32:22.966Z,7.08
2019-01-30T08:33:24.087Z,7.08
2019-01-30T08:34:24.956Z,7.20
2019-01-30T08:35:26.080Z,7.35
2019-01-30T08:36:27.017Z,7.33
2019-01-30T08:37:27.872Z,6.95
2019-01-30T08:38:28.712Z,7.15
2019-01-30T08:39:29.554Z,6.92
2019-01-30T08:40:30.648Z,7.30
2019-01-30T08:41:31.547Z,7.45
2019-01-30T08:42:32.433Z,7.87
2019-01-30T08:43:33.321Z,7.65
2019-01-30T08:44:34.154Z,7.28
2019-01-30T08:45:34.993Z,7.30
2019-01-30T08:46:35.921Z,7.72
2019-01-30T08:47:36.780Z,7.50
2019-01-30T08:48:37.601Z,7.30
2019-01-30T08:49:40.309Z,7.78
2019-01-30T08:50:41.213Z,7.33
2019-01-30T08:51:42.124Z,6.78
2019-01-30T08:52:42.961Z,6.97
2019-01-30T08:53:43.832Z,7.90
2019-01-30T08:54:44.765Z,7.67
2019-01-30T08:55:45.624Z,7.50
2019-01-30T08:56:52.954Z,7.65
2019-01-30T08:57:49.294Z,7.97
2019-01-30T08:58:50.122Z,8.33
2019-01-30T08:59:51.261Z,7.95
2019-01-30T09:00:52.139Z,7.50
2019-01-30T09:01:52.983Z,8.78
2019-01-30T09:02:53.827Z,7.97
2019-01-30T09:03:54.723Z,8.60
2019-01-30T09:04:55.547Z,9.68
2019-01-30T09:05:56.398Z,8.43
2019-01-30T09:06:57.238Z,8.00
2019-01-30T09:07:58.142Z,7.72
2019-01-30T09:08:59.000Z,7.20
2019-01-30T09:09:59.855Z,7.85
2019-01-30T09:11:00.676Z,7.58
2019-01-30T09:12:01.525Z,6.97
2019-01-30T09:13:02.432Z,7.30
2019-01-30T09:14:03.293Z,7.53
2019-01-30T09:15:04.213Z,6.80
2019-01-30T09:16:05.045Z,6.75
2019-01-30T09:17:08.657Z,6.28
2019-01-30T09:18:08.680Z,6.72
2019-01-30T09:19:09.595Z,7.42
2019-01-30T09:20:10.443Z,6.92
2019-01-30T09:21:11.295Z,7.05
2019-01-30T09:22:12.153Z,6.78
2019-01-30T09:23:13.410Z,6.78
2019-01-30T09:24:16.191Z,7.08
2019-01-30T09:25:17.050Z,6.95
2019-01-30T09:26:17.899Z,6.83
2019-01-30T09:27:18.731Z,6.83
2019-01-30T09:28:19.562Z,6.70
2019-01-30T09:29:20.462Z,6.60
2019-01-30T09:30:21.365Z,6.42
2019-01-30T09:31:22.211Z,7.58
2019-01-30T09:32:23.068Z,6.75
2019-01-30T09:33:25.971Z,6.67
2019-01-30T09:34:26.706Z,6.55
2019-01-30T09:35:27.701Z,6.78
2019-01-30T09:36:28.797Z,6.47
2019-01-30T09:37:29.684Z,6.20
2019-01-30T09:38:30.653Z,6.28
2019-01-30T09:39:31.518Z,6.25
2019-01-30T09:40:32.369Z,6.50
2019-01-30T09:41:33.302Z,6.55
2019-01-30T09:42:34.112Z,6.50
2019-01-30T09:43:35.016Z,6.85
2019-01-30T09:44:35.854Z,6.35
2019-01-30T09:45:36.751Z,6.25
2019-01-30T09:46:38.274Z,7.00
2019-01-30T09:47:39.139Z,6.28
2019-01-30T09:48:40.019Z,6.28
2019-01-30T09:49:40.876Z,6.80
2019-01-30T09:50:41.851Z,6.85
2019-01-30T09:51:42.721Z,6.42
2019-01-30T09:52:43.601Z,6.62
2019-01-30T09:53:44.536Z,6.50
2019-01-30T09:54:45.364Z,6.85
2019-01-30T09:55:46.230Z,6.33
2019-01-30T09:56:47.102Z,6.35
2019-01-30T09:57:47.951Z,6.67
2019-01-30T09:58:48.819Z,6.92
2019-01-30T09:59:49.800Z,7.30
2019-01-30T10:00:50.671Z,6.72
2019-01-30T10:01:51.541Z,6.65
2019-01-30T10:02:52.397Z,7.10
2019-01-30T10:03:53.261Z,6.50
2019-01-30T10:04:54.222Z,7.12
2019-01-30T10:05:55.308Z,6.33
2019-01-30T10:06:56.171Z,6.45
2019-01-30T10:07:56.996Z,7.67
2019-01-30T10:08:57.860Z,6.67
2019-01-30T10:09:58.707Z,6.67
2019-01-30T10:10:59.576Z,7.05
2019-01-30T10:12:00.630Z,6.95
2019-01-30T10:13:01.504Z,6.92
2019-01-30T10:14:02.381Z,6.97
2019-01-30T10:15:03.243Z,7.00
2019-01-30T10:16:04.083Z,6.75
2019-01-30T10:17:04.973Z,6.80
2019-01-30T10:18:05.801Z,6.83
2019-01-30T10:19:06.727Z,6.75
2019-01-30T10:20:07.545Z,6.87
2019-01-30T10:21:08.419Z,6.90
2019-01-30T10:22:09.308Z,7.15
2019-01-30T10:23:10.212Z,7.08
2019-01-30T10:24:11.125Z,6.87
2019-01-30T10:25:12.244Z,6.80
2019-01-30T10:26:13.101Z,7.20
2019-01-30T10:27:13.912Z,7.55
2019-01-30T10:28:16.799Z,7.10
2019-01-30T10:29:17.571Z,7.03
2019-01-30T10:30:18.423Z,6.85
2019-01-30T10:31:19.314Z,6.83
2019-01-30T10:32:20.213Z,7.08
2019-01-30T10:33:21.062Z,7.22
2019-01-30T10:34:21.911Z,6.45
2019-01-30T10:35:22.959Z,6.87
2019-01-30T10:36:23.926Z,6.95
2019-01-30T10:37:24.742Z,6.60
2019-01-30T10:38:25.608Z,6.85
2019-01-30T10:39:26.436Z,7.40
2019-01-30T10:40:27.320Z,7.03
2019-01-30T10:41:28.590Z,6.65
2019-01-30T10:42:29.414Z,6.87
2019-01-30T10:43:30.250Z,7.22
2019-01-30T10:44:31.084Z,7.08
2019-01-30T10:45:31.946Z,6.80
2019-01-30T10:46:32.833Z,6.65
2019-01-30T10:47:33.907Z,7.03
2019-01-30T10:48:36.475Z,6.85
2019-01-30T10:49:37.523Z,7.53
2019-01-30T10:50:38.366Z,7.40
2019-01-30T10:51:39.259Z,6.58
2019-01-30T10:52:40.227Z,6.80
2019-01-30T10:53:41.467Z,6.95
2019-01-30T10:54:42.305Z,6.85
2019-01-30T10:55:43.147Z,6.83
2019-01-30T10:56:43.993Z,5.90
2019-01-30T10:57:45.226Z,6.78
2019-01-30T10:58:46.088Z,6.15
2019-01-30T10:59:46.934Z,6.90
2019-01-30T11:00:47.818Z,6.37
2019-01-30T11:01:48.709Z,6.90
2019-01-30T11:02:49.568Z,6.85
2019-01-30T11:03:56.969Z,6.17
2019-01-30T11:04:53.176Z,6.70
2019-01-30T11:05:54.115Z,6.65
2019-01-30T11:06:54.970Z,6.97
2019-01-30T11:07:55.827Z,6.53
2019-01-30T11:08:56.697Z,6.85
2019-01-30T11:09:57.547Z,6.80
2019-01-30T11:11:07.657Z,6.40
2019-01-30T11:12:01.177Z,6.83
2019-01-30T11:13:02.038Z,6.65
2019-01-30T11:14:02.894Z,6.20
2019-01-30T11:15:03.745Z,7.03
2019-01-30T11:16:04.644Z,6.78
2019-01-30T11:17:05.494Z,6.00
2019-01-30T11:18:06.344Z,6.35
2019-01-30T11:19:07.215Z,6.50
2019-01-30T11:20:09.311Z,6.45
2019-01-30T11:21:10.163Z,7.03
2019-01-30T11:22:11.005Z,6.87
2019-01-30T11:23:11.860Z,7.37
2019-01-30T11:24:12.738Z,6.50
2019-01-30T11:25:13.568Z,6.37
2019-01-30T11:26:14.443Z,6.35
2019-01-30T11:27:15.289Z,6.03
2019-01-30T11:28:16.184Z,6.40
2019-01-30T11:29:17.139Z,5.87
2019-01-30T11:30:17.983Z,7.37
2019-01-30T11:31:18.847Z,7.10
2019-01-30T11:32:19.805Z,6.75
2019-01-30T11:33:20.811Z,7.42
2019-01-30T11:34:21.751Z,6.70
2019-01-30T11:35:22.687Z,6.50
2019-01-30T11:36:23.581Z,6.87
2019-01-30T11:37:24.522Z,7.12
2019-01-30T11:38:25.352Z,6.37
2019-01-30T11:39:26.339Z,6.10
2019-01-30T11:40:27.271Z,6.85
2019-01-30T11:41:28.189Z,7.28
2019-01-30T11:42:29.028Z,7.37
2019-01-30T11:43:29.874Z,6.97
2019-01-30T11:44:30.730Z,7.00
2019-01-30T11:45:31.584Z,7.03
2019-01-30T11:46:32.498Z,6.70
2019-01-30T11:47:33.430Z,6.92
2019-01-30T11:48:34.263Z,6.90
2019-01-30T11:49:35.091Z,6.22
2019-01-30T11:50:35.952Z,6.50
2019-01-30T11:51:36.864Z,7.12
2019-01-30T11:52:37.696Z,7.12
2019-01-30T11:53:38.579Z,6.87
2019-01-30T11:54:39.433Z,7.30
2019-01-30T11:55:40.279Z,7.00
2019-01-30T11:56:41.125Z,6.92
2019-01-30T11:57:41.985Z,7.00
2019-01-30T11:58:42.902Z,6.28
2019-01-30T11:59:43.838Z,6.58
2019-01-30T12:00:44.757Z,6.28
2019-01-30T12:01:45.581Z,7.12
2019-01-30T12:02:47.892Z,7.25
2019-01-30T12:03:49.253Z,7.25
2019-01-30T12:04:50.098Z,7.78
2019-01-30T12:05:50.968Z,7.25
2019-01-30T12:06:51.851Z,7.12
2019-01-30T12:07:52.703Z,6.95
2019-01-30T12:08:53.574Z,7.10
2019-01-30T12:09:55.967Z,7.40
2019-01-30T12:10:57.060Z,7.30
2019-01-30T12:11:57.927Z,7.47
2019-01-30T12:12:58.796Z,7.28
2019-01-30T12:13:59.736Z,6.95
2019-01-30T12:15:00.721Z,7.15
2019-01-30T12:16:01.866Z,6.25
2019-01-30T12:17:02.768Z,7.03
2019-01-30T12:18:03.789Z,6.90
2019-01-30T12:19:04.688Z,7.33
2019-01-30T12:20:05.532Z,6.70
2019-01-30T12:21:06.498Z,7.00
2019-01-30T12:22:07.378Z,8.05
2019-01-30T12:23:08.235Z,7.00
2019-01-30T12:24:09.114Z,6.72
2019-01-30T12:25:10.060Z,7.40
2019-01-30T12:26:10.974Z,6.20
2019-01-30T12:27:11.859Z,6.17
2019-01-30T12:28:12.810Z,6.60
2019-01-30T12:29:13.680Z,6.67
2019-01-30T12:30:14.644Z,6.67
2019-01-30T12:31:15.579Z,6.47
2019-01-30T12:32:16.441Z,6.72
2019-01-30T12:33:17.509Z,6.40
2019-01-30T12:34:27.873Z,6.33
2019-01-30T12:35:21.132Z,6.35
2019-01-30T12:36:22.042Z,6.58
2019-01-30T12:37:23.134Z,6.22
2019-01-30T12:38:23.984Z,5.90
2019-01-30T12:39:24.819Z,5.47
2019-01-30T12:40:25.684Z,6.50
2019-01-30T12:41:26.581Z,6.20
2019-01-30T12:42:27.440Z,6.58
2019-01-30T12:43:28.269Z,6.47
2019-01-30T12:44:29.128Z,5.80
2019-01-30T12:45:30.076Z,6.40
2019-01-30T12:46:30.945Z,5.95
2019-01-30T12:47:31.821Z,6.12
2019-01-30T12:48:32.659Z,6.40
2019-01-30T12:49:33.518Z,6.12
2019-01-30T12:50:34.385Z,6.28
2019-01-30T12:51:36.247Z,6.47
2019-01-30T12:52:37.313Z,6.30
2019-01-30T12:53:38.206Z,5.95
2019-01-30T12:54:39.255Z,6.72
2019-01-30T12:55:40.093Z,6.58
2019-01-30T12:56:40.997Z,5.92
2019-01-30T12:57:41.862Z,6.40
2019-01-30T12:58:42.688Z,6.40
2019-01-30T12:59:43.540Z,6.50
2019-01-30T13:00:44.399Z,6.10
2019-01-30T13:01:45.262Z,6.00
2019-01-30T13:02:46.142Z,6.40
2019-01-30T13:03:47.066Z,6.30
2019-01-30T13:04:47.949Z,6.33
2019-01-30T13:05:48.938Z,6.47
2019-01-30T13:06:49.802Z,6.05
2019-01-30T13:07:50.668Z,6.70
2019-01-30T13:08:51.543Z,6.72
2019-01-30T13:09:52.499Z,6.75
2019-01-30T13:10:53.461Z,6.70
2019-01-30T13:11:54.312Z,6.72
2019-01-30T13:12:55.192Z,6.58
2019-01-30T13:13:56.154Z,6.85
2019-01-30T13:14:57.008Z,7.22
2019-01-30T13:15:57.834Z,6.72
2019-01-30T13:16:58.682Z,7.00
2019-01-30T13:17:59.588Z,6.95
2019-01-30T13:19:00.432Z,6.30
2019-01-30T13:20:01.345Z,6.67
2019-01-30T13:21:02.175Z,6.40
2019-01-30T13:22:03.430Z,6.47
2019-01-30T13:23:04.298Z,6.72
2019-01-30T13:24:05.258Z,6.22
2019-01-30T13:25:06.244Z,7.12
2019-01-30T13:26:07.259Z,6.67
2019-01-30T13:27:08.196Z,6.55